sensor_id;sensor_type;location;lat;lon;timestamp;temperature;humidity
68556;HTU21D;55544;51.032;5.866;2023-05-07T00:00:04;17.62;73.19
68556;HTU21D;55544;51.032;5.866;2023-05-07T00:02:34;17.63;73.16
68556;HTU21D;55544;51.032;5.866;2023-05-07T00:05:00;17.61;73.19
68556;HTU21D;55544;51.032;5.866;2023-05-07T00:07:27;17.62;73.16
68556;HTU21D;55544;51.032;5.866;2023-05-07T00:09:53;17.61;73.03
68556;HTU21D;55544;51.032;5.866;2023-05-07T00:12:19;17.51;72.99
68556;HTU21D;55544;51.032;5.866;2023-05-07T00:14:45;17.33;73.70
68556;HTU21D;55544;51.032;5.866;2023-05-07T00:17:11;17.26;73.87
68556;HTU21D;55544;51.032;5.866;2023-05-07T00:19:36;17.30;73.60
68556;HTU21D;55544;51.032;5.866;2023-05-07T00:22:02;17.31;73.40
68556;HTU21D;55544;51.032;5.866;2023-05-07T00:24:28;17.30;73.41
68556;HTU21D;55544;51.032;5.866;2023-05-07T00:26:53;17.31;73.51
68556;HTU21D;55544;51.032;5.866;2023-05-07T00:29:19;17.30;73.58
68556;HTU21D;55544;51.032;5.866;2023-05-07T00:31:45;17.28;73.70
68556;HTU21D;55544;51.032;5.866;2023-05-07T00:34:11;17.13;74.13
68556;HTU21D;55544;51.032;5.866;2023-05-07T00:36:36;16.99;75.09
68556;HTU21D;55544;51.032;5.866;2023-05-07T00:39:02;16.98;75.60
68556;HTU21D;55544;51.032;5.866;2023-05-07T00:41:29;17.01;75.83
68556;HTU21D;55544;51.032;5.866;2023-05-07T00:43:56;17.07;75.87
68556;HTU21D;55544;51.032;5.866;2023-05-07T00:46:22;17.13;75.92
68556;HTU21D;55544;51.032;5.866;2023-05-07T00:48:50;17.18;75.85
68556;HTU21D;55544;51.032;5.866;2023-05-07T00:51:17;17.24;75.68
68556;HTU21D;55544;51.032;5.866;2023-05-07T00:53:44;17.30;75.59
68556;HTU21D;55544;51.032;5.866;2023-05-07T00:56:10;17.35;75.47
68556;HTU21D;55544;51.032;5.866;2023-05-07T00:58:36;17.37;75.31
68556;HTU21D;55544;51.032;5.866;2023-05-07T01:01:02;17.41;75.19
68556;HTU21D;55544;51.032;5.866;2023-05-07T01:03:28;17.41;75.09
68556;HTU21D;55544;51.032;5.866;2023-05-07T01:05:57;17.43;75.11
68556;HTU21D;55544;51.032;5.866;2023-05-07T01:08:26;17.44;74.99
68556;HTU21D;55544;51.032;5.866;2023-05-07T01:10:56;17.44;74.93
68556;HTU21D;55544;51.032;5.866;2023-05-07T01:13:24;17.44;74.82
68556;HTU21D;55544;51.032;5.866;2023-05-07T01:15:50;17.41;74.82
68556;HTU21D;55544;51.032;5.866;2023-05-07T01:18:16;17.38;74.96
68556;HTU21D;55544;51.032;5.866;2023-05-07T01:20:42;17.34;75.17
68556;HTU21D;55544;51.032;5.866;2023-05-07T01:23:10;17.33;75.18
68556;HTU21D;55544;51.032;5.866;2023-05-07T01:25:36;17.32;75.23
68556;HTU21D;55544;51.032;5.866;2023-05-07T01:28:03;17.33;75.23
68556;HTU21D;55544;51.032;5.866;2023-05-07T01:30:35;17.32;75.22
68556;HTU21D;55544;51.032;5.866;2023-05-07T01:33:09;17.29;75.32
68556;HTU21D;55544;51.032;5.866;2023-05-07T01:35:42;17.26;75.26
68556;HTU21D;55544;51.032;5.866;2023-05-07T01:38:09;17.25;75.22
68556;HTU21D;55544;51.032;5.866;2023-05-07T01:40:35;17.21;75.23
68556;HTU21D;55544;51.032;5.866;2023-05-07T01:43:03;17.18;75.38
68556;HTU21D;55544;51.032;5.866;2023-05-07T01:45:30;17.13;75.58
68556;HTU21D;55544;51.032;5.866;2023-05-07T01:47:58;17.05;75.93
68556;HTU21D;55544;51.032;5.866;2023-05-07T01:50:25;17.01;76.27
68556;HTU21D;55544;51.032;5.866;2023-05-07T01:52:52;16.99;76.30
68556;HTU21D;55544;51.032;5.866;2023-05-07T01:55:18;16.99;76.21
68556;HTU21D;55544;51.032;5.866;2023-05-07T01:57:43;16.96;75.99
68556;HTU21D;55544;51.032;5.866;2023-05-07T02:00:10;16.95;75.92
68556;HTU21D;55544;51.032;5.866;2023-05-07T02:02:41;16.92;76.01
68556;HTU21D;55544;51.032;5.866;2023-05-07T02:05:15;16.92;75.92
68556;HTU21D;55544;51.032;5.866;2023-05-07T02:07:42;16.90;75.84
68556;HTU21D;55544;51.032;5.866;2023-05-07T02:10:08;16.86;75.86
68556;HTU21D;55544;51.032;5.866;2023-05-07T02:12:34;16.72;76.35
68556;HTU21D;55544;51.032;5.866;2023-05-07T02:15:00;16.65;76.89
68556;HTU21D;55544;51.032;5.866;2023-05-07T02:17:26;16.59;77.33
68556;HTU21D;55544;51.032;5.866;2023-05-07T02:19:51;16.60;77.55
68556;HTU21D;55544;51.032;5.866;2023-05-07T02:22:17;16.60;77.73
68556;HTU21D;55544;51.032;5.866;2023-05-07T02:24:43;16.55;78.01
68556;HTU21D;55544;51.032;5.866;2023-05-07T02:27:10;16.51;78.35
68556;HTU21D;55544;51.032;5.866;2023-05-07T02:29:36;16.52;78.39
68556;HTU21D;55544;51.032;5.866;2023-05-07T02:32:02;16.55;78.20
68556;HTU21D;55544;51.032;5.866;2023-05-07T02:34:28;16.59;77.89
68556;HTU21D;55544;51.032;5.866;2023-05-07T02:36:53;16.61;77.82
68556;HTU21D;55544;51.032;5.866;2023-05-07T02:39:23;16.61;77.53
68556;HTU21D;55544;51.032;5.866;2023-05-07T02:41:48;16.55;77.60
68556;HTU21D;55544;51.032;5.866;2023-05-07T02:44:14;16.49;77.95
68556;HTU21D;55544;51.032;5.866;2023-05-07T02:46:40;16.50;77.69
68556;HTU21D;55544;51.032;5.866;2023-05-07T02:49:09;16.54;77.36
68556;HTU21D;55544;51.032;5.866;2023-05-07T02:51:35;16.56;77.31
68556;HTU21D;55544;51.032;5.866;2023-05-07T02:54:03;16.54;77.50
68556;HTU21D;55544;51.032;5.866;2023-05-07T02:56:30;16.47;77.87
68556;HTU21D;55544;51.032;5.866;2023-05-07T02:58:56;16.46;77.89
68556;HTU21D;55544;51.032;5.866;2023-05-07T03:01:25;16.48;77.84
68556;HTU21D;55544;51.032;5.866;2023-05-07T03:04:03;16.51;77.91
68556;HTU21D;55544;51.032;5.866;2023-05-07T03:06:29;16.54;77.75
68556;HTU21D;55544;51.032;5.866;2023-05-07T03:08:54;16.56;77.59
68556;HTU21D;55544;51.032;5.866;2023-05-07T03:11:20;16.59;77.39
68556;HTU21D;55544;51.032;5.866;2023-05-07T03:13:46;16.51;77.48
68556;HTU21D;55544;51.032;5.866;2023-05-07T03:16:12;16.45;77.98
68556;HTU21D;55544;51.032;5.866;2023-05-07T03:18:37;16.46;77.95
68556;HTU21D;55544;51.032;5.866;2023-05-07T03:21:03;16.47;77.77
68556;HTU21D;55544;51.032;5.866;2023-05-07T03:23:29;16.48;77.78
68556;HTU21D;55544;51.032;5.866;2023-05-07T03:25:55;16.50;77.63
68556;HTU21D;55544;51.032;5.866;2023-05-07T03:28:20;16.51;77.53
68556;HTU21D;55544;51.032;5.866;2023-05-07T03:30:52;16.50;77.40
68556;HTU21D;55544;51.032;5.866;2023-05-07T03:33:18;16.49;77.21
68556;HTU21D;55544;51.032;5.866;2023-05-07T03:35:44;16.45;77.25
68556;HTU21D;55544;51.032;5.866;2023-05-07T03:38:10;16.42;77.23
68556;HTU21D;55544;51.032;5.866;2023-05-07T03:40:37;16.40;77.11
68556;HTU21D;55544;51.032;5.866;2023-05-07T03:43:04;16.40;77.05
68556;HTU21D;55544;51.032;5.866;2023-05-07T03:45:31;16.40;76.97
68556;HTU21D;55544;51.032;5.866;2023-05-07T03:48:06;16.40;76.93
68556;HTU21D;55544;51.032;5.866;2023-05-07T03:50:32;16.39;76.86
68556;HTU21D;55544;51.032;5.866;2023-05-07T03:52:58;16.37;76.82
68556;HTU21D;55544;51.032;5.866;2023-05-07T03:55:24;16.36;76.73
68556;HTU21D;55544;51.032;5.866;2023-05-07T03:57:55;16.32;76.48
68556;HTU21D;55544;51.032;5.866;2023-05-07T04:00:23;16.19;76.91
68556;HTU21D;55544;51.032;5.866;2023-05-07T04:02:48;16.10;77.40
68556;HTU21D;55544;51.032;5.866;2023-05-07T04:05:19;16.11;77.66
68556;HTU21D;55544;51.032;5.866;2023-05-07T04:07:48;16.14;77.76
68556;HTU21D;55544;51.032;5.866;2023-05-07T04:10:18;16.16;77.84
68556;HTU21D;55544;51.032;5.866;2023-05-07T04:12:47;16.21;77.74
68556;HTU21D;55544;51.032;5.866;2023-05-07T04:15:17;16.21;77.68
68556;HTU21D;55544;51.032;5.866;2023-05-07T04:17:43;16.25;77.69
68556;HTU21D;55544;51.032;5.866;2023-05-07T04:20:16;16.27;77.63
68556;HTU21D;55544;51.032;5.866;2023-05-07T04:22:44;16.27;77.75
68556;HTU21D;55544;51.032;5.866;2023-05-07T04:25:09;16.29;77.39
68556;HTU21D;55544;51.032;5.866;2023-05-07T04:27:36;16.25;77.45
68556;HTU21D;55544;51.032;5.866;2023-05-07T04:30:03;16.21;77.99
68556;HTU21D;55544;51.032;5.866;2023-05-07T04:32:34;16.25;78.20
68556;HTU21D;55544;51.032;5.866;2023-05-07T04:35:02;16.27;78.32
68556;HTU21D;55544;51.032;5.866;2023-05-07T04:37:27;16.30;78.30
68556;HTU21D;55544;51.032;5.866;2023-05-07T04:39:53;16.35;78.21
68556;HTU21D;55544;51.032;5.866;2023-05-07T04:42:20;16.40;78.11
68556;HTU21D;55544;51.032;5.866;2023-05-07T04:44:46;16.43;78.00
68556;HTU21D;55544;51.032;5.866;2023-05-07T04:47:12;16.46;77.94
68556;HTU21D;55544;51.032;5.866;2023-05-07T04:49:38;16.49;77.88
68556;HTU21D;55544;51.032;5.866;2023-05-07T04:52:05;16.52;77.92
68556;HTU21D;55544;51.032;5.866;2023-05-07T04:54:31;16.54;78.00
68556;HTU21D;55544;51.032;5.866;2023-05-07T04:56:57;16.58;77.86
68556;HTU21D;55544;51.032;5.866;2023-05-07T04:59:23;16.60;77.76
68556;HTU21D;55544;51.032;5.866;2023-05-07T05:01:49;16.54;77.94
68556;HTU21D;55544;51.032;5.866;2023-05-07T05:04:15;16.46;78.51
68556;HTU21D;55544;51.032;5.866;2023-05-07T05:06:41;16.45;78.66
68556;HTU21D;55544;51.032;5.866;2023-05-07T05:09:07;16.45;79.04
68556;HTU21D;55544;51.032;5.866;2023-05-07T05:11:33;16.41;79.18
68556;HTU21D;55544;51.032;5.866;2023-05-07T05:13:59;16.34;79.82
68556;HTU21D;55544;51.032;5.866;2023-05-07T05:16:26;16.36;80.09
68556;HTU21D;55544;51.032;5.866;2023-05-07T05:18:52;16.44;80.03
68556;HTU21D;55544;51.032;5.866;2023-05-07T05:21:20;16.52;79.71
68556;HTU21D;55544;51.032;5.866;2023-05-07T05:23:49;16.62;79.38
68556;HTU21D;55544;51.032;5.866;2023-05-07T05:26:18;16.70;79.01
68556;HTU21D;55544;51.032;5.866;2023-05-07T05:28:44;16.76;78.87
68556;HTU21D;55544;51.032;5.866;2023-05-07T05:31:11;16.76;78.59
68556;HTU21D;55544;51.032;5.866;2023-05-07T05:33:36;16.79;78.69
68556;HTU21D;55544;51.032;5.866;2023-05-07T05:36:04;16.82;78.57
68556;HTU21D;55544;51.032;5.866;2023-05-07T05:38:30;16.87;78.35
68556;HTU21D;55544;51.032;5.866;2023-05-07T05:40:56;16.92;78.10
68556;HTU21D;55544;51.032;5.866;2023-05-07T05:43:22;16.98;77.95
68556;HTU21D;55544;51.032;5.866;2023-05-07T05:45:48;17.00;78.07
68556;HTU21D;55544;51.032;5.866;2023-05-07T05:48:14;17.03;77.89
68556;HTU21D;55544;51.032;5.866;2023-05-07T05:50:41;17.08;77.82
68556;HTU21D;55544;51.032;5.866;2023-05-07T05:53:07;17.13;77.65
68556;HTU21D;55544;51.032;5.866;2023-05-07T05:55:33;17.18;77.71
68556;HTU21D;55544;51.032;5.866;2023-05-07T05:58:03;17.21;77.53
68556;HTU21D;55544;51.032;5.866;2023-05-07T06:00:31;17.24;77.58
68556;HTU21D;55544;51.032;5.866;2023-05-07T06:03:02;17.29;77.52
68556;HTU21D;55544;51.032;5.866;2023-05-07T06:05:28;17.29;77.40
68556;HTU21D;55544;51.032;5.866;2023-05-07T06:07:55;17.33;77.60
68556;HTU21D;55544;51.032;5.866;2023-05-07T06:10:21;17.36;77.78
68556;HTU21D;55544;51.032;5.866;2023-05-07T06:12:47;17.44;77.72
68556;HTU21D;55544;51.032;5.866;2023-05-07T06:15:13;17.50;77.53
68556;HTU21D;55544;51.032;5.866;2023-05-07T06:17:40;17.58;77.34
68556;HTU21D;55544;51.032;5.866;2023-05-07T06:20:06;17.62;76.98
68556;HTU21D;55544;51.032;5.866;2023-05-07T06:22:32;17.62;77.11
68556;HTU21D;55544;51.032;5.866;2023-05-07T06:24:59;17.66;77.39
68556;HTU21D;55544;51.032;5.866;2023-05-07T06:27:25;17.72;77.08
68556;HTU21D;55544;51.032;5.866;2023-05-07T06:29:52;17.79;76.97
68556;HTU21D;55544;51.032;5.866;2023-05-07T06:32:18;17.81;76.60
68556;HTU21D;55544;51.032;5.866;2023-05-07T06:34:45;17.80;76.60
68556;HTU21D;55544;51.032;5.866;2023-05-07T06:37:12;17.84;76.66
68556;HTU21D;55544;51.032;5.866;2023-05-07T06:39:52;17.92;76.45
68556;HTU21D;55544;51.032;5.866;2023-05-07T06:42:17;18.00;76.18
68556;HTU21D;55544;51.032;5.866;2023-05-07T06:44:46;18.09;75.43
68556;HTU21D;55544;51.032;5.866;2023-05-07T06:47:14;18.14;75.16
68556;HTU21D;55544;51.032;5.866;2023-05-07T06:49:40;18.18;75.11
68556;HTU21D;55544;51.032;5.866;2023-05-07T06:52:06;18.27;75.25
68556;HTU21D;55544;51.032;5.866;2023-05-07T06:54:32;18.37;75.34
68556;HTU21D;55544;51.032;5.866;2023-05-07T06:56:58;18.50;75.08
68556;HTU21D;55544;51.032;5.866;2023-05-07T06:59:26;18.57;75.00
68556;HTU21D;55544;51.032;5.866;2023-05-07T07:01:52;18.68;74.80
68556;HTU21D;55544;51.032;5.866;2023-05-07T07:04:18;18.76;74.69
68556;HTU21D;55544;51.032;5.866;2023-05-07T07:06:50;18.81;74.62
68556;HTU21D;55544;51.032;5.866;2023-05-07T07:09:17;18.92;74.20
68556;HTU21D;55544;51.032;5.866;2023-05-07T07:11:42;19.02;73.79
68556;HTU21D;55544;51.032;5.866;2023-05-07T07:14:08;19.11;73.48
68556;HTU21D;55544;51.032;5.866;2023-05-07T07:16:40;19.17;73.71
68556;HTU21D;55544;51.032;5.866;2023-05-07T07:19:06;19.28;73.06
68556;HTU21D;55544;51.032;5.866;2023-05-07T07:21:32;19.37;72.13
68556;HTU21D;55544;51.032;5.866;2023-05-07T07:23:58;19.40;72.27
68556;HTU21D;55544;51.032;5.866;2023-05-07T07:26:24;19.53;72.22
68556;HTU21D;55544;51.032;5.866;2023-05-07T07:28:51;19.67;71.73
68556;HTU21D;55544;51.032;5.866;2023-05-07T07:31:24;19.83;70.96
68556;HTU21D;55544;51.032;5.866;2023-05-07T07:33:50;19.95;70.51
68556;HTU21D;55544;51.032;5.866;2023-05-07T07:36:16;20.04;70.22
68556;HTU21D;55544;51.032;5.866;2023-05-07T07:38:42;20.16;70.16
68556;HTU21D;55544;51.032;5.866;2023-05-07T07:41:08;20.27;69.45
68556;HTU21D;55544;51.032;5.866;2023-05-07T07:43:35;20.36;68.71
68556;HTU21D;55544;51.032;5.866;2023-05-07T07:46:01;20.47;68.65
68556;HTU21D;55544;51.032;5.866;2023-05-07T07:48:27;20.54;68.43
68556;HTU21D;55544;51.032;5.866;2023-05-07T07:50:54;20.61;68.24
68556;HTU21D;55544;51.032;5.866;2023-05-07T07:53:20;20.68;68.39
68556;HTU21D;55544;51.032;5.866;2023-05-07T07:55:46;20.74;68.06
68556;HTU21D;55544;51.032;5.866;2023-05-07T07:58:15;20.79;68.26
68556;HTU21D;55544;51.032;5.866;2023-05-07T08:00:41;20.88;68.04
68556;HTU21D;55544;51.032;5.866;2023-05-07T08:03:09;20.91;67.33
68556;HTU21D;55544;51.032;5.866;2023-05-07T08:05:38;20.88;67.42
68556;HTU21D;55544;51.032;5.866;2023-05-07T08:08:05;20.87;68.21
68556;HTU21D;55544;51.032;5.866;2023-05-07T08:10:33;20.81;67.66
68556;HTU21D;55544;51.032;5.866;2023-05-07T08:13:05;20.88;68.20
68556;HTU21D;55544;51.032;5.866;2023-05-07T08:15:32;21.02;67.46
68556;HTU21D;55544;51.032;5.866;2023-05-07T08:17:58;21.14;66.50
68556;HTU21D;55544;51.032;5.866;2023-05-07T08:20:26;21.23;65.68
68556;HTU21D;55544;51.032;5.866;2023-05-07T08:22:52;21.32;65.77
68556;HTU21D;55544;51.032;5.866;2023-05-07T08:25:18;21.44;65.13
68556;HTU21D;55544;51.032;5.866;2023-05-07T08:27:44;21.54;64.76
68556;HTU21D;55544;51.032;5.866;2023-05-07T08:30:11;21.66;63.97
68556;HTU21D;55544;51.032;5.866;2023-05-07T08:32:37;21.73;63.21
68556;HTU21D;55544;51.032;5.866;2023-05-07T08:35:03;21.83;63.37
68556;HTU21D;55544;51.032;5.866;2023-05-07T08:37:29;21.94;63.64
68556;HTU21D;55544;51.032;5.866;2023-05-07T08:39:55;22.11;63.63
68556;HTU21D;55544;51.032;5.866;2023-05-07T08:42:27;22.26;63.69
68556;HTU21D;55544;51.032;5.866;2023-05-07T08:44:57;22.39;63.26
68556;HTU21D;55544;51.032;5.866;2023-05-07T08:47:29;22.54;62.57
68556;HTU21D;55544;51.032;5.866;2023-05-07T08:50:01;22.64;62.22
68556;HTU21D;55544;51.032;5.866;2023-05-07T08:52:27;22.72;61.76
68556;HTU21D;55544;51.032;5.866;2023-05-07T08:54:54;22.76;61.18
68556;HTU21D;55544;51.032;5.866;2023-05-07T08:57:20;22.81;61.05
68556;HTU21D;55544;51.032;5.866;2023-05-07T08:59:47;22.87;60.99
68556;HTU21D;55544;51.032;5.866;2023-05-07T09:02:14;22.94;60.70
68556;HTU21D;55544;51.032;5.866;2023-05-07T09:04:40;22.98;59.99
68556;HTU21D;55544;51.032;5.866;2023-05-07T09:07:07;23.02;59.48
68556;HTU21D;55544;51.032;5.866;2023-05-07T09:09:37;23.07;58.67
68556;HTU21D;55544;51.032;5.866;2023-05-07T09:12:04;23.05;58.34
68556;HTU21D;55544;51.032;5.866;2023-05-07T09:14:32;23.06;58.16
68556;HTU21D;55544;51.032;5.866;2023-05-07T09:16:59;23.09;57.92
68556;HTU21D;55544;51.032;5.866;2023-05-07T09:19:27;23.11;57.75
68556;HTU21D;55544;51.032;5.866;2023-05-07T09:22:05;23.17;57.32
68556;HTU21D;55544;51.032;5.866;2023-05-07T09:24:51;23.27;57.06
68556;HTU21D;55544;51.032;5.866;2023-05-07T09:27:20;23.36;56.71
68556;HTU21D;55544;51.032;5.866;2023-05-07T09:29:46;23.44;56.80
68556;HTU21D;55544;51.032;5.866;2023-05-07T09:32:14;23.51;56.84
68556;HTU21D;55544;51.032;5.866;2023-05-07T09:34:42;23.59;56.77
68556;HTU21D;55544;51.032;5.866;2023-05-07T09:37:08;23.71;56.76
68556;HTU21D;55544;51.032;5.866;2023-05-07T09:42:07;23.91;56.36
68556;HTU21D;55544;51.032;5.866;2023-05-07T09:44:35;24.00;56.33
68556;HTU21D;55544;51.032;5.866;2023-05-07T09:47:05;24.06;56.39
68556;HTU21D;55544;51.032;5.866;2023-05-07T09:49:39;24.15;56.24
68556;HTU21D;55544;51.032;5.866;2023-05-07T09:52:09;24.20;55.95
68556;HTU21D;55544;51.032;5.866;2023-05-07T09:54:40;24.28;55.53
68556;HTU21D;55544;51.032;5.866;2023-05-07T09:57:11;24.31;55.19
68556;HTU21D;55544;51.032;5.866;2023-05-07T09:59:42;24.35;55.52
68556;HTU21D;55544;51.032;5.866;2023-05-07T10:02:14;24.45;54.30
68556;HTU21D;55544;51.032;5.866;2023-05-07T10:04:47;24.55;52.89
68556;HTU21D;55544;51.032;5.866;2023-05-07T10:07:16;24.62;52.48
68556;HTU21D;55544;51.032;5.866;2023-05-07T10:09:43;24.71;52.10
68556;HTU21D;55544;51.032;5.866;2023-05-07T10:12:19;24.80;52.14
68556;HTU21D;55544;51.032;5.866;2023-05-07T10:14:46;24.87;52.29
68556;HTU21D;55544;51.032;5.866;2023-05-07T10:17:16;24.93;52.19
68556;HTU21D;55544;51.032;5.866;2023-05-07T10:19:47;24.95;52.00
68556;HTU21D;55544;51.032;5.866;2023-05-07T10:22:16;24.95;51.07
68556;HTU21D;55544;51.032;5.866;2023-05-07T10:24:48;25.00;51.33
68556;HTU21D;55544;51.032;5.866;2023-05-07T10:27:18;25.03;52.51
68556;HTU21D;55544;51.032;5.866;2023-05-07T10:32:37;24.92;53.23
68556;HTU21D;55544;51.032;5.866;2023-05-07T10:35:13;24.97;53.49
68556;HTU21D;55544;51.032;5.866;2023-05-07T10:37:40;25.07;52.89
68556;HTU21D;55544;51.032;5.866;2023-05-07T10:40:07;25.14;52.34
68556;HTU21D;55544;51.032;5.866;2023-05-07T10:42:34;25.20;52.36
68556;HTU21D;55544;51.032;5.866;2023-05-07T10:45:14;25.30;51.88
68556;HTU21D;55544;51.032;5.866;2023-05-07T10:48:08;25.42;51.08
68556;HTU21D;55544;51.032;5.866;2023-05-07T10:50:35;25.53;50.57
68556;HTU21D;55544;51.032;5.866;2023-05-07T10:56:26;25.79;49.65
68556;HTU21D;55544;51.032;5.866;2023-05-07T11:02:03;25.78;48.14
68556;HTU21D;55544;51.032;5.866;2023-05-07T11:05:20;25.69;48.20
68556;HTU21D;55544;51.032;5.866;2023-05-07T11:08:14;25.61;47.96
68556;HTU21D;55544;51.032;5.866;2023-05-07T11:10:55;25.51;47.83
68556;HTU21D;55544;51.032;5.866;2023-05-07T11:13:44;25.40;48.25
68556;HTU21D;55544;51.032;5.866;2023-05-07T11:16:21;25.28;48.70
68556;HTU21D;55544;51.032;5.866;2023-05-07T11:18:56;25.20;48.40
68556;HTU21D;55544;51.032;5.866;2023-05-07T11:24:07;25.04;47.86
68556;HTU21D;55544;51.032;5.866;2023-05-07T11:27:00;24.99;48.39
68556;HTU21D;55544;51.032;5.866;2023-05-07T11:29:28;24.92;48.87
68556;HTU21D;55544;51.032;5.866;2023-05-07T11:32:03;24.87;49.65
68556;HTU21D;55544;51.032;5.866;2023-05-07T11:34:35;24.79;49.32
68556;HTU21D;55544;51.032;5.866;2023-05-07T11:37:02;24.73;49.81
68556;HTU21D;55544;51.032;5.866;2023-05-07T11:39:51;24.62;50.06
68556;HTU21D;55544;51.032;5.866;2023-05-07T11:42:34;24.56;49.41
68556;HTU21D;55544;51.032;5.866;2023-05-07T11:45:01;24.47;49.79
68556;HTU21D;55544;51.032;5.866;2023-05-07T11:47:30;24.35;49.92
68556;HTU21D;55544;51.032;5.866;2023-05-07T11:49:56;24.11;52.33
68556;HTU21D;55544;51.032;5.866;2023-05-07T11:52:24;23.53;55.73
68556;HTU21D;55544;51.032;5.866;2023-05-07T11:54:54;23.05;58.40
68556;HTU21D;55544;51.032;5.866;2023-05-07T11:57:22;22.61;60.79
68556;HTU21D;55544;51.032;5.866;2023-05-07T11:59:48;22.22;62.07
68556;HTU21D;55544;51.032;5.866;2023-05-07T12:02:20;21.92;63.34
68556;HTU21D;55544;51.032;5.866;2023-05-07T12:04:46;21.66;64.54
68556;HTU21D;55544;51.032;5.866;2023-05-07T12:07:15;21.43;66.13
68556;HTU21D;55544;51.032;5.866;2023-05-07T12:09:42;21.29;67.41
68556;HTU21D;55544;51.032;5.866;2023-05-07T12:12:08;21.22;68.05
68556;HTU21D;55544;51.032;5.866;2023-05-07T12:14:39;21.17;68.36
68556;HTU21D;55544;51.032;5.866;2023-05-07T12:17:09;21.13;68.94
68556;HTU21D;55544;51.032;5.866;2023-05-07T12:19:37;21.20;69.40
68556;HTU21D;55544;51.032;5.866;2023-05-07T12:22:04;21.30;69.50
68556;HTU21D;55544;51.032;5.866;2023-05-07T12:24:48;21.43;69.23
68556;HTU21D;55544;51.032;5.866;2023-05-07T12:27:15;21.43;70.16
68556;HTU21D;55544;51.032;5.866;2023-05-07T12:29:49;21.32;70.40
68556;HTU21D;55544;51.032;5.866;2023-05-07T12:32:17;21.22;70.32
68556;HTU21D;55544;51.032;5.866;2023-05-07T12:34:43;21.31;69.57
68556;HTU21D;55544;51.032;5.866;2023-05-07T12:37:09;21.48;68.31
68556;HTU21D;55544;51.032;5.866;2023-05-07T12:39:35;21.67;68.76
68556;HTU21D;55544;51.032;5.866;2023-05-07T12:42:01;21.85;68.49
68556;HTU21D;55544;51.032;5.866;2023-05-07T12:44:34;21.99;68.01
68556;HTU21D;55544;51.032;5.866;2023-05-07T12:47:03;22.10;67.68
68556;HTU21D;55544;51.032;5.866;2023-05-07T12:49:29;22.23;67.78
68556;HTU21D;55544;51.032;5.866;2023-05-07T12:51:55;22.34;68.37
68556;HTU21D;55544;51.032;5.866;2023-05-07T12:54:29;22.54;67.80
68556;HTU21D;55544;51.032;5.866;2023-05-07T12:57:07;22.75;65.88
68556;HTU21D;55544;51.032;5.866;2023-05-07T12:59:39;22.95;64.94
68556;HTU21D;55544;51.032;5.866;2023-05-07T13:02:06;23.11;63.59
68556;HTU21D;55544;51.032;5.866;2023-05-07T13:04:33;23.31;63.24
68556;HTU21D;55544;51.032;5.866;2023-05-07T13:07:01;23.50;62.21
68556;HTU21D;55544;51.032;5.866;2023-05-07T13:09:27;23.64;61.28
68556;HTU21D;55544;51.032;5.866;2023-05-07T13:11:54;23.72;61.39
68556;HTU21D;55544;51.032;5.866;2023-05-07T13:14:20;23.85;61.67
68556;HTU21D;55544;51.032;5.866;2023-05-07T13:16:47;23.99;61.50
68556;HTU21D;55544;51.032;5.866;2023-05-07T13:19:13;24.11;60.86
68556;HTU21D;55544;51.032;5.866;2023-05-07T13:21:38;24.19;59.99
68556;HTU21D;55544;51.032;5.866;2023-05-07T13:24:04;24.23;59.37
68556;HTU21D;55544;51.032;5.866;2023-05-07T13:26:31;24.28;58.94
68556;HTU21D;55544;51.032;5.866;2023-05-07T13:28:57;24.39;59.75
68556;HTU21D;55544;51.032;5.866;2023-05-07T13:31:23;24.44;58.17
68556;HTU21D;55544;51.032;5.866;2023-05-07T13:33:48;24.36;56.85
68556;HTU21D;55544;51.032;5.866;2023-05-07T13:36:14;24.34;56.58
68556;HTU21D;55544;51.032;5.866;2023-05-07T13:38:40;24.33;55.89
68556;HTU21D;55544;51.032;5.866;2023-05-07T13:41:06;24.28;55.97
68556;HTU21D;55544;51.032;5.866;2023-05-07T13:43:32;24.31;56.79
68556;HTU21D;55544;51.032;5.866;2023-05-07T13:45:59;24.39;56.74
68556;HTU21D;55544;51.032;5.866;2023-05-07T13:48:25;24.43;56.73
68556;HTU21D;55544;51.032;5.866;2023-05-07T13:50:51;24.38;56.52
68556;HTU21D;55544;51.032;5.866;2023-05-07T13:53:17;24.28;56.63
68556;HTU21D;55544;51.032;5.866;2023-05-07T13:55:44;24.15;56.12
68556;HTU21D;55544;51.032;5.866;2023-05-07T13:58:11;24.09;55.90
68556;HTU21D;55544;51.032;5.866;2023-05-07T14:00:37;24.05;55.51
68556;HTU21D;55544;51.032;5.866;2023-05-07T14:03:04;24.03;55.57
68556;HTU21D;55544;51.032;5.866;2023-05-07T14:05:30;23.97;56.15
68556;HTU21D;55544;51.032;5.866;2023-05-07T14:08:00;23.92;56.08
68556;HTU21D;55544;51.032;5.866;2023-05-07T14:10:26;23.92;55.76
68556;HTU21D;55544;51.032;5.866;2023-05-07T14:12:51;23.90;55.47
68556;HTU21D;55544;51.032;5.866;2023-05-07T14:15:18;23.91;55.27
68556;HTU21D;55544;51.032;5.866;2023-05-07T14:17:44;23.87;54.91
68556;HTU21D;55544;51.032;5.866;2023-05-07T14:20:11;23.84;55.28
68556;HTU21D;55544;51.032;5.866;2023-05-07T14:22:37;23.84;55.74
68556;HTU21D;55544;51.032;5.866;2023-05-07T14:25:03;23.81;55.89
68556;HTU21D;55544;51.032;5.866;2023-05-07T14:27:28;23.81;55.70
68556;HTU21D;55544;51.032;5.866;2023-05-07T14:29:54;23.81;55.88
68556;HTU21D;55544;51.032;5.866;2023-05-07T14:32:21;23.84;56.32
68556;HTU21D;55544;51.032;5.866;2023-05-07T14:34:47;23.88;56.36
68556;HTU21D;55544;51.032;5.866;2023-05-07T14:37:13;23.91;56.19
68556;HTU21D;55544;51.032;5.866;2023-05-07T14:39:39;23.90;55.70
68556;HTU21D;55544;51.032;5.866;2023-05-07T14:42:05;23.82;55.93
68556;HTU21D;55544;51.032;5.866;2023-05-07T14:44:36;23.84;56.00
68556;HTU21D;55544;51.032;5.866;2023-05-07T14:47:02;23.88;55.77
68556;HTU21D;55544;51.032;5.866;2023-05-07T14:49:28;23.91;55.94
68556;HTU21D;55544;51.032;5.866;2023-05-07T14:51:53;23.97;55.27
68556;HTU21D;55544;51.032;5.866;2023-05-07T14:54:19;24.01;54.88
68556;HTU21D;55544;51.032;5.866;2023-05-07T14:56:45;24.05;54.43
68556;HTU21D;55544;51.032;5.866;2023-05-07T14:59:11;24.09;54.03
68556;HTU21D;55544;51.032;5.866;2023-05-07T15:01:37;24.14;53.70
68556;HTU21D;55544;51.032;5.866;2023-05-07T15:04:04;24.21;53.60
68556;HTU21D;55544;51.032;5.866;2023-05-07T15:06:30;24.23;53.22
68556;HTU21D;55544;51.032;5.866;2023-05-07T15:08:56;24.21;52.71
68556;HTU21D;55544;51.032;5.866;2023-05-07T15:11:22;24.19;52.62
68556;HTU21D;55544;51.032;5.866;2023-05-07T15:13:50;24.18;52.56
68556;HTU21D;55544;51.032;5.866;2023-05-07T15:16:15;24.21;52.66
68556;HTU21D;55544;51.032;5.866;2023-05-07T15:18:42;24.23;52.63
68556;HTU21D;55544;51.032;5.866;2023-05-07T15:21:08;24.21;52.65
68556;HTU21D;55544;51.032;5.866;2023-05-07T15:23:34;24.16;53.09
68556;HTU21D;55544;51.032;5.866;2023-05-07T15:25:59;24.18;53.26
68556;HTU21D;55544;51.032;5.866;2023-05-07T15:28:27;24.21;53.23
68556;HTU21D;55544;51.032;5.866;2023-05-07T15:30:55;24.21;53.30
68556;HTU21D;55544;51.032;5.866;2023-05-07T15:33:21;24.15;53.59